createdAt,value
2017-09-28T00:01:15.004Z,42.83
2017-09-28T00:03:42.740Z,33.43
2017-09-28T00:06:10.454Z,32.83
2017-09-28T00:08:38.202Z,39.23
2017-09-28T00:11:05.892Z,62.90
2017-09-28T00:13:33.646Z,37.33
2017-09-28T00:16:01.349Z,35.83
2017-09-28T00:18:29.107Z,51.20
2017-09-28T00:20:56.805Z,38.70
2017-09-28T00:23:24.552Z,38.13
2017-09-28T00:25:52.194Z,30.97
2017-09-28T00:28:19.954Z,32.27
2017-09-28T00:30:47.642Z,44.90
2017-09-28T00:33:15.385Z,33.00
2017-09-28T00:35:43.136Z,34.30
2017-09-28T00:38:10.916Z,39.93
2017-09-28T00:40:38.607Z,31.93
2017-09-28T00:43:06.394Z,38.73
2017-09-28T00:45:34.182Z,32.67
2017-09-28T00:48:01.962Z,29.27
2017-09-28T00:50:29.677Z,29.33
2017-09-28T00:52:57.317Z,25.67
2017-09-28T00:55:25.078Z,29.37
2017-09-28T00:57:52.765Z,34.30
2017-09-28T01:00:20.526Z,35.60
2017-09-28T01:02:48.240Z,31.00
2017-09-28T01:05:16.002Z,29.87
2017-09-28T01:07:43.693Z,32.17
2017-09-28T01:10:11.437Z,30.00
2017-09-28T01:12:39.151Z,41.13
2017-09-28T01:15:06.885Z,30.40
2017-09-28T01:17:34.616Z,34.80
2017-09-28T01:20:02.370Z,35.27
2017-09-28T01:22:30.089Z,37.17
2017-09-28T01:24:57.841Z,44.07
2017-09-28T01:27:25.543Z,31.73
2017-09-28T01:29:53.291Z,31.00
2017-09-28T01:32:20.988Z,39.33
2017-09-28T01:34:48.725Z,40.47
2017-09-28T01:37:16.416Z,35.10
2017-09-28T01:39:44.187Z,46.53
2017-09-28T01:42:11.872Z,37.00
2017-09-28T01:44:39.668Z,65.37
2017-09-28T01:47:07.384Z,38.77
2017-09-28T01:49:35.123Z,43.20
2017-09-28T01:52:02.763Z,49.57
2017-09-28T01:54:30.501Z,38.80
2017-09-28T01:56:58.183Z,38.27
2017-09-28T01:59:25.921Z,45.33
2017-09-28T02:01:53.616Z,44.17
2017-09-28T02:04:21.381Z,44.33
2017-09-28T02:06:49.102Z,32.53
2017-09-28T02:09:16.846Z,85.43
2017-09-28T02:11:44.494Z,71.07
2017-09-28T02:14:12.236Z,64.70
2017-09-28T02:16:39.959Z,74.20
2017-09-28T02:19:07.725Z,48.13
2017-09-28T02:21:35.437Z,69.70
2017-09-28T02:24:03.176Z,57.40
2017-09-28T02:26:30.890Z,59.30
2017-09-28T02:28:58.679Z,50.17
2017-09-28T02:31:26.392Z,72.47
2017-09-28T02:33:54.105Z,65.53
2017-09-28T02:36:21.855Z,68.87
2017-09-28T02:38:49.539Z,59.07
2017-09-28T02:41:17.277Z,60.37
2017-09-28T02:43:45.036Z,64.53
2017-09-28T02:46:12.784Z,47.13
2017-09-28T02:48:40.478Z,55.03
2017-09-28T02:51:08.213Z,69.70
2017-09-28T02:53:35.909Z,56.40
2017-09-28T02:56:03.651Z,43.57
2017-09-28T02:58:31.360Z,29.67
2017-09-28T03:00:59.113Z,31.27
2017-09-28T03:03:26.811Z,30.77
2017-09-28T03:05:54.564Z,30.97
2017-09-28T03:08:22.270Z,32.30
2017-09-28T03:10:50.031Z,29.43
2017-09-28T03:13:17.720Z,31.37
2017-09-28T03:15:45.480Z,29.40
2017-09-28T03:18:13.179Z,30.50
2017-09-28T03:20:40.924Z,33.27
2017-09-28T03:23:08.613Z,40.10
2017-09-28T03:25:36.355Z,36.57
2017-09-28T03:28:04.050Z,30.90
2017-09-28T03:30:31.803Z,30.80
2017-09-28T03:32:59.498Z,33.33
2017-09-28T03:35:27.228Z,29.37
2017-09-28T03:37:54.932Z,30.77
2017-09-28T03:40:22.687Z,32.73
2017-09-28T03:42:50.390Z,32.63
2017-09-28T03:45:18.204Z,33.17
2017-09-28T03:47:45.942Z,33.17
2017-09-28T03:50:13.744Z,30.57
2017-09-28T03:52:41.437Z,32.03
2017-09-28T03:55:09.237Z,33.63
2017-09-28T03:57:36.927Z,31.83
2017-09-28T04:00:04.755Z,31.90
2017-09-28T04:02:32.472Z,36.83
2017-09-28T04:05:00.224Z,30.53
2017-09-28T04:07:27.915Z,30.53
2017-09-28T04:09:55.661Z,32.73
2017-09-28T04:12:23.403Z,31.43
2017-09-28T04:14:51.104Z,30.63
2017-09-28T04:17:18.860Z,33.30
2017-09-28T04:19:46.575Z,32.17
2017-09-28T04:22:14.314Z,32.23
2017-09-28T04:24:42.029Z,30.60
2017-09-28T04:27:09.806Z,27.83
2017-09-28T04:29:37.932Z,34.23
2017-09-28T04:32:05.686Z,29.40
2017-09-28T04:34:33.402Z,29.77
2017-09-28T04:37:01.164Z,31.23
2017-09-28T04:39:28.888Z,28.57
2017-09-28T04:41:56.631Z,31.67
2017-09-28T04:44:24.383Z,34.23
2017-09-28T04:46:52.125Z,29.83
2017-09-28T04:49:19.783Z,36.00
2017-09-28T04:51:47.469Z,54.73
2017-09-28T04:54:15.117Z,112.90
2017-09-28T04:56:42.813Z,106.50
2017-09-28T04:59:10.447Z,110.00
2017-09-28T05:01:38.135Z,99.27
2017-09-28T05:04:05.791Z,101.23
2017-09-28T05:06:33.497Z,124.27
2017-09-28T05:09:01.157Z,57.00
2017-09-28T05:11:28.837Z,63.23
2017-09-28T05:13:56.487Z,52.40
2017-09-28T05:16:24.187Z,43.43
2017-09-28T05:18:51.837Z,60.37
2017-09-28T05:21:19.538Z,65.87
2017-09-28T05:23:47.268Z,70.93
2017-09-28T05:26:15.019Z,40.97
2017-09-28T05:28:42.747Z,59.00
2017-09-28T05:31:10.508Z,76.00
2017-09-28T05:33:38.230Z,76.53
2017-09-28T05:36:06.028Z,72.50
2017-09-28T05:38:33.747Z,81.17
2017-09-28T05:41:01.552Z,36.70
2017-09-28T05:43:29.321Z,108.57
2017-09-28T05:45:57.109Z,108.13
2017-09-28T05:48:24.837Z,95.67
2017-09-28T05:50:52.572Z,87.33
2017-09-28T05:53:20.327Z,114.83
2017-09-28T05:55:48.039Z,112.70
2017-09-28T05:58:15.776Z,81.97
2017-09-28T06:00:43.499Z,115.83
2017-09-28T06:03:11.205Z,91.83
2017-09-28T06:05:38.934Z,76.77
2017-09-28T06:08:06.665Z,81.13
2017-09-28T06:10:34.379Z,67.23
2017-09-28T06:13:02.152Z,54.20
2017-09-28T06:15:29.878Z,58.83
2017-09-28T06:17:58.001Z,54.20
2017-09-28T06:20:25.703Z,35.17
2017-09-28T06:22:53.456Z,44.53
2017-09-28T06:25:21.156Z,37.93
2017-09-28T06:27:48.903Z,39.47
2017-09-28T06:30:16.631Z,47.30
2017-09-28T06:32:44.377Z,42.97
2017-09-28T06:35:12.129Z,45.83
2017-09-28T06:37:39.823Z,48.47
2017-09-28T06:40:07.522Z,47.73
2017-09-28T06:42:35.290Z,38.60
2017-09-28T06:45:03.058Z,44.07
2017-09-28T06:47:30.878Z,69.00
2017-09-28T06:49:58.583Z,45.60
2017-09-28T06:52:26.324Z,50.83
2017-09-28T06:54:54.034Z,62.53
2017-09-28T06:57:21.714Z,44.10
2017-09-28T06:59:49.417Z,57.50
2017-09-28T07:02:17.176Z,35.57
2017-09-28T07:04:44.881Z,42.97
2017-09-28T07:07:12.641Z,53.37
2017-09-28T07:09:40.380Z,39.20
2017-09-28T07:12:08.138Z,40.13
2017-09-28T07:14:35.844Z,47.57
2017-09-28T07:17:03.601Z,47.10
2017-09-28T07:19:31.312Z,57.33
2017-09-28T07:21:59.069Z,35.03
2017-09-28T07:24:26.781Z,42.13
2017-09-28T07:26:54.544Z,49.97
2017-09-28T07:29:22.252Z,39.00
2017-09-28T07:31:49.999Z,38.57
2017-09-28T07:42:45.017Z,78.43
2017-09-28T07:45:13.944Z,50.43
2017-09-28T07:47:41.669Z,39.17
2017-09-28T07:50:09.518Z,34.40
2017-09-28T07:52:37.270Z,46.83
2017-09-28T07:55:05.019Z,43.83
2017-09-28T07:57:32.765Z,43.97
2017-09-28T08:00:00.486Z,35.87
2017-09-28T08:02:28.255Z,35.27
2017-09-28T08:04:55.960Z,41.77
2017-09-28T08:07:23.698Z,39.60
2017-09-28T08:09:51.399Z,37.83
2017-09-28T08:12:19.216Z,37.13
2017-09-28T08:14:46.887Z,36.00
2017-09-28T08:17:14.696Z,37.07
2017-09-28T08:19:42.451Z,39.70
2017-09-28T08:22:10.215Z,29.13
2017-09-28T08:24:37.983Z,50.13
2017-09-28T08:27:05.688Z,38.17
2017-09-28T08:29:33.474Z,27.43
2017-09-28T08:32:01.178Z,28.00
2017-09-28T08:34:28.954Z,35.33
2017-09-28T08:36:56.664Z,30.87
2017-09-28T08:39:24.425Z,47.43
2017-09-28T08:41:52.143Z,25.50
2017-09-28T08:44:19.945Z,40.27
2017-09-28T08:46:47.645Z,91.40
2017-09-28T08:49:22.228Z,41.03
2017-09-28T08:51:57.875Z,44.40
2017-09-28T08:54:39.037Z,44.63
2017-09-28T08:57:29.783Z,34.87
2017-09-28T08:59:57.462Z,39.90
2017-09-28T09:02:25.156Z,72.07
2017-09-28T09:04:59.540Z,64.93
2017-09-28T09:07:27.526Z,38.00
2017-09-28T09:09:55.206Z,42.43
2017-09-28T09:12:22.838Z,42.23
2017-09-28T09:14:50.542Z,37.53
2017-09-28T09:17:18.179Z,45.50
2017-09-28T09:19:50.356Z,37.83
2017-09-28T09:22:18.393Z,44.67
2017-09-28T09:24:46.137Z,59.70
2017-09-28T09:27:13.861Z,43.37
2017-09-28T09:29:41.615Z,76.73
2017-09-28T09:32:09.370Z,53.87
2017-09-28T09:34:37.182Z,70.43
2017-09-28T09:37:04.895Z,52.30
2017-09-28T09:39:32.650Z,81.63
2017-09-28T09:42:00.370Z,45.70
2017-09-28T09:44:28.061Z,58.43
2017-09-28T09:46:55.704Z,36.53
2017-09-28T09:49:23.408Z,37.83
2017-09-28T09:51:51.068Z,52.53
2017-09-28T09:54:18.901Z,70.87
2017-09-28T09:56:46.620Z,43.73
2017-09-28T09:59:14.383Z,56.73
2017-09-28T10:01:42.105Z,41.67
2017-09-28T10:04:09.840Z,42.47
2017-09-28T10:06:43.161Z,36.60
2017-09-28T10:09:14.345Z,51.30
2017-09-28T10:11:45.540Z,91.00
2017-09-28T10:14:15.681Z,79.97
2017-09-28T10:16:43.376Z,74.53
2017-09-28T10:19:11.149Z,41.20
2017-09-28T10:21:38.879Z,59.27
2017-09-28T10:24:06.633Z,58.37
2017-09-28T10:26:34.343Z,59.77
2017-09-28T10:29:02.119Z,59.10
2017-09-28T10:31:29.833Z,80.97
2017-09-28T10:33:57.591Z,92.53
2017-09-28T10:36:25.314Z,43.13
2017-09-28T10:38:53.061Z,67.13
2017-09-28T10:41:20.762Z,59.47
2017-09-28T10:43:52.880Z,47.50
2017-09-28T10:46:27.528Z,52.73
2017-09-28T10:48:55.239Z,44.70
2017-09-28T10:51:22.929Z,36.90
2017-09-28T10:53:50.620Z,51.73
2017-09-28T10:56:18.306Z,110.97
2017-09-28T10:58:45.953Z,42.30
2017-09-28T11:01:13.647Z,79.37
2017-09-28T11:03:45.994Z,64.50
2017-09-28T11:06:14.046Z,68.13
2017-09-28T11:08:41.699Z,46.67
2017-09-28T11:11:09.413Z,71.77
2017-09-28T11:13:37.055Z,61.23
2017-09-28T11:16:04.805Z,71.23
2017-09-28T11:18:32.465Z,55.80
2017-09-28T11:21:00.179Z,55.10
2017-09-28T11:23:27.809Z,66.40
2017-09-28T11:25:55.514Z,86.53
2017-09-28T11:28:23.154Z,116.50
2017-09-28T11:31:24.329Z,72.30
2017-09-28T11:34:08.756Z,64.10
2017-09-28T11:45:51.978Z,80.27
2017-09-28T12:02:57.639Z,65.30
2017-09-28T12:05:25.373Z,67.23
2017-09-28T12:07:53.033Z,78.23
2017-09-28T12:10:20.772Z,73.30
2017-09-28T12:12:48.474Z,101.80
2017-09-28T12:15:16.221Z,69.67
2017-09-28T12:17:43.933Z,103.07
2017-09-28T12:20:11.686Z,74.47
2017-09-28T12:22:39.400Z,99.80
2017-09-28T12:25:07.106Z,999.90
2017-09-28T12:27:34.792Z,58.77
2017-09-28T12:30:02.586Z,102.33
2017-09-28T12:32:30.293Z,197.90
2017-09-28T12:34:58.035Z,83.43
2017-09-28T12:37:25.723Z,97.57
2017-09-28T12:39:53.423Z,301.37
2017-09-28T12:42:21.143Z,319.33
2017-09-28T12:44:48.971Z,301.17
2017-09-28T12:47:16.724Z,296.93
2017-09-28T12:49:44.445Z,235.70
2017-09-28T12:52:12.204Z,179.00
2017-09-28T12:54:39.933Z,126.97
2017-09-28T12:57:07.725Z,107.17
2017-09-28T12:59:35.442Z,101.23
2017-09-28T13:02:03.149Z,85.43
2017-09-28T13:04:30.868Z,75.93
2017-09-28T13:06:58.984Z,87.60
2017-09-28T13:15:10.211Z,74.87
2017-09-28T13:17:37.874Z,71.93
2017-09-28T13:20:05.604Z,77.27
2017-09-28T13:22:33.397Z,67.40
2017-09-28T13:25:01.091Z,57.47
2017-09-28T13:27:28.824Z,50.73
2017-09-28T13:29:56.516Z,57.10
2017-09-28T13:32:24.245Z,42.37
2017-09-28T13:34:51.940Z,54.70
2017-09-28T13:37:19.687Z,55.50
2017-09-28T13:39:47.398Z,45.97
2017-09-28T13:42:15.089Z,51.83
2017-09-28T13:44:42.831Z,54.27
2017-09-28T13:47:10.599Z,50.90
2017-09-28T13:49:38.269Z,48.30
2017-09-28T13:52:05.962Z,48.67
2017-09-28T13:54:37.163Z,53.20
2017-09-28T13:57:04.998Z,49.37
2017-09-28T13:59:33.781Z,38.50
2017-09-28T14:02:03.239Z,39.33
2017-09-28T14:04:31.116Z,31.00
2017-09-28T14:06:58.807Z,30.47
2017-09-28T14:09:26.521Z,31.43
2017-09-28T14:11:54.283Z,32.10
2017-09-28T14:14:22.017Z,32.83
2017-09-28T14:16:49.711Z,37.20
2017-09-28T14:19:17.414Z,36.23
2017-09-28T14:21:45.164Z,30.90
2017-09-28T14:24:12.829Z,30.40
2017-09-28T14:26:40.512Z,28.73
2017-09-28T14:29:08.243Z,31.70
2017-09-28T14:31:35.989Z,25.07
2017-09-28T14:34:03.729Z,26.90
2017-09-28T14:36:31.412Z,29.17
2017-09-28T14:38:59.138Z,29.13
2017-09-28T14:41:26.817Z,29.83
2017-09-28T14:43:54.589Z,26.20
2017-09-28T14:46:22.317Z,33.90
2017-09-28T14:48:50.018Z,31.10
2017-09-28T14:51:17.701Z,33.80
2017-09-28T14:53:45.413Z,33.40
2017-09-28T14:56:13.348Z,31.83
2017-09-28T14:58:41.048Z,34.40
2017-09-28T15:01:08.758Z,39.93
2017-09-28T15:03:36.457Z,35.03
2017-09-28T15:06:04.157Z,50.57
2017-09-28T15:08:31.839Z,39.40
2017-09-28T15:10:59.667Z,36.60
2017-09-28T15:13:27.393Z,39.37
2017-09-28T15:15:59.439Z,43.77
2017-09-28T15:18:27.121Z,41.73
2017-09-28T15:21:03.209Z,51.73
2017-09-28T15:23:35.295Z,47.03
2017-09-28T15:26:07.549Z,52.17
2017-09-28T15:28:35.212Z,67.50
2017-09-28T15:31:07.413Z,62.97
2017-09-28T15:33:35.098Z,61.20
2017-09-28T15:36:02.768Z,86.30
2017-09-28T15:38:30.465Z,70.50
2017-09-28T15:40:58.150Z,88.77
2017-09-28T15:43:25.828Z,70.87
2017-09-28T15:45:53.770Z,39.07
2017-09-28T15:48:21.541Z,37.43
2017-09-28T15:50:49.168Z,35.27
2017-09-28T15:53:16.916Z,39.47
2017-09-28T15:55:44.550Z,41.67
2017-09-28T15:58:12.235Z,35.67
2017-09-28T16:00:39.938Z,44.30
2017-09-28T16:03:07.678Z,36.27
2017-09-28T16:05:35.389Z,44.87
2017-09-28T16:08:03.063Z,45.73
2017-09-28T16:10:30.753Z,32.90
2017-09-28T16:12:58.446Z,45.10
2017-09-28T16:15:26.087Z,45.63
2017-09-28T16:17:53.777Z,49.50
2017-09-28T16:20:21.428Z,38.07
2017-09-28T16:22:49.172Z,39.23
2017-09-28T16:25:16.919Z,37.77
2017-09-28T16:27:44.632Z,41.53
2017-09-28T16:30:12.272Z,35.20
2017-09-28T16:32:39.959Z,35.33
2017-09-28T16:35:07.673Z,44.97
2017-09-28T16:37:35.440Z,43.37
2017-09-28T16:40:03.146Z,49.67
2017-09-28T16:42:30.899Z,56.27
2017-09-28T16:44:58.660Z,39.30
2017-09-28T16:47:26.413Z,41.07
2017-09-28T16:49:54.129Z,44.17
2017-09-28T16:52:22.024Z,40.20
2017-09-28T16:54:49.751Z,38.27
2017-09-28T16:57:17.509Z,43.10
2017-09-28T16:59:45.133Z,47.20
2017-09-28T17:02:12.833Z,53.70
2017-09-28T17:04:40.602Z,50.33
2017-09-28T17:07:08.307Z,50.43
2017-09-28T17:09:36.067Z,66.00
2017-09-28T17:12:03.782Z,62.90
2017-09-28T17:14:31.545Z,55.30
2017-09-28T17:16:59.252Z,62.73
2017-09-28T17:19:27.030Z,60.33
2017-09-28T17:21:54.725Z,59.27
2017-09-28T17:24:22.480Z,59.73
2017-09-28T17:26:50.186Z,71.17
2017-09-28T17:29:17.916Z,70.53
2017-09-28T17:31:45.624Z,64.43
2017-09-28T17:34:13.382Z,59.20
2017-09-28T17:36:41.109Z,47.97
2017-09-28T17:39:08.893Z,46.47
2017-09-28T17:41:36.622Z,40.50
2017-09-28T17:44:04.433Z,39.57
2017-09-28T17:46:32.135Z,39.43
2017-09-28T17:49:00.123Z,42.73
2017-09-28T17:51:27.822Z,44.37
2017-09-28T17:53:55.622Z,39.00
2017-09-28T17:56:23.345Z,38.43
2017-09-28T17:58:51.113Z,44.17
2017-09-28T18:01:18.801Z,45.40
2017-09-28T18:03:46.541Z,42.70
2017-09-28T18:06:14.275Z,50.57
2017-09-28T18:08:42.094Z,39.87
2017-09-28T18:11:09.828Z,39.73
2017-09-28T18:13:37.589Z,33.67
2017-09-28T18:16:05.294Z,32.67
2017-09-28T18:18:33.966Z,69.67
2017-09-28T18:21:01.709Z,64.13
2017-09-28T18:23:29.474Z,78.87
2017-09-28T18:25:57.203Z,70.63
2017-09-28T18:28:24.946Z,84.67
2017-09-28T18:30:52.668Z,101.13
2017-09-28T18:33:20.417Z,92.57
2017-09-28T18:35:48.131Z,91.90
2017-09-28T18:38:16.045Z,110.13
2017-09-28T18:40:43.777Z,97.87
2017-09-28T18:43:11.652Z,95.53
2017-09-28T18:45:39.506Z,90.47
2017-09-28T18:48:07.314Z,93.53
2017-09-28T18:50:35.139Z,83.67
2017-09-28T18:53:02.914Z,83.67
2017-09-28T18:55:30.834Z,72.53
2017-09-28T18:57:58.565Z,94.07
2017-09-28T19:00:26.325Z,85.10
2017-09-28T19:02:54.056Z,74.80
2017-09-28T19:05:21.876Z,86.03
2017-09-28T19:07:49.602Z,84.63
2017-09-28T19:10:17.359Z,88.00
2017-09-28T19:12:45.084Z,108.27
2017-09-28T19:15:12.835Z,88.30
2017-09-28T19:17:40.532Z,102.27
2017-09-28T19:20:08.300Z,90.40
2017-09-28T19:22:36.008Z,87.70
2017-09-28T19:25:03.809Z,93.23
2017-09-28T19:27:31.524Z,96.90
2017-09-28T19:29:59.210Z,106.30
2017-09-28T19:32:26.921Z,95.77
2017-09-28T19:34:54.674Z,101.40
2017-09-28T19:37:22.406Z,97.43
2017-09-28T19:39:50.149Z,107.40
2017-09-28T19:42:17.899Z,110.13
2017-09-28T19:44:45.602Z,117.10
2017-09-28T19:47:13.315Z,113.33
2017-09-28T19:49:41.101Z,110.53
2017-09-28T19:52:08.826Z,116.33
2017-09-28T19:54:36.638Z,109.60
2017-09-28T19:57:04.353Z,91.53
2017-09-28T19:59:32.103Z,87.30
2017-09-28T20:01:59.806Z,110.13
2017-09-28T20:04:27.580Z,91.67
2017-09-28T20:06:55.311Z,105.93
2017-09-28T20:09:23.101Z,97.50
2017-09-28T20:11:50.802Z,106.33
2017-09-28T20:14:18.569Z,109.27
2017-09-28T20:16:46.342Z,115.00
2017-09-28T20:19:14.158Z,117.13
2017-09-28T20:21:41.919Z,117.93
2017-09-28T20:24:09.653Z,116.17
2017-09-28T20:26:37.443Z,133.43
2017-09-28T20:29:05.170Z,134.73
2017-09-28T20:31:32.936Z,126.57
2017-09-28T20:34:00.649Z,130.47
2017-09-28T20:36:28.410Z,140.60
2017-09-28T20:38:56.138Z,127.53
2017-09-28T20:41:23.912Z,138.50
2017-09-28T20:43:51.636Z,146.20
2017-09-28T20:46:19.435Z,142.47
2017-09-28T20:48:47.144Z,146.70
2017-09-28T20:51:14.925Z,144.20
2017-09-28T20:53:42.638Z,152.73
2017-09-28T20:56:10.393Z,152.50
2017-09-28T20:58:38.126Z,145.93
2017-09-28T21:01:05.887Z,167.33
2017-09-28T21:03:33.580Z,172.83
2017-09-28T21:06:01.328Z,196.30
2017-09-28T21:08:28.993Z,220.97
2017-09-28T21:10:56.751Z,200.47
2017-09-28T21:13:24.467Z,218.90
2017-09-28T21:15:52.214Z,223.10
2017-09-28T21:18:19.917Z,210.43
2017-09-28T21:20:47.694Z,200.70
2017-09-28T21:23:15.404Z,200.07
2017-09-28T21:25:43.156Z,205.37
2017-09-28T21:28:10.851Z,232.73
2017-09-28T21:30:38.605Z,209.27
2017-09-28T21:33:06.308Z,231.17
2017-09-28T21:35:34.054Z,221.50
2017-09-28T21:38:01.826Z,203.43
2017-09-28T21:40:29.591Z,192.20
2017-09-28T21:42:57.287Z,223.70
2017-09-28T21:45:25.117Z,221.90
2017-09-28T21:47:52.825Z,198.80
2017-09-28T21:50:20.611Z,217.97
2017-09-28T21:52:48.325Z,202.97
2017-09-28T21:55:16.074Z,205.03
2017-09-28T21:57:43.799Z,226.23
2017-09-28T22:00:11.551Z,239.60
2017-09-28T22:02:39.299Z,215.30
2017-09-28T22:05:07.006Z,246.67
2017-09-28T22:07:34.753Z,248.53
2017-09-28T22:10:02.400Z,191.23
2017-09-28T22:12:30.142Z,197.50
2017-09-28T22:14:57.849Z,251.13
2017-09-28T22:17:25.596Z,207.97
2017-09-28T22:19:53.300Z,236.93
2017-09-28T22:22:21.058Z,238.73
2017-09-28T22:24:48.767Z,233.10
2017-09-28T22:27:16.519Z,250.73
2017-09-28T22:29:44.243Z,237.07
2017-09-28T22:32:11.995Z,229.07
2017-09-28T22:34:39.710Z,255.30
2017-09-28T22:37:07.424Z,216.93
2017-09-28T22:39:35.121Z,221.67
2017-09-28T22:42:02.882Z,189.97
2017-09-28T22:44:30.636Z,185.07
2017-09-28T22:46:58.388Z,222.47
2017-09-28T22:49:26.083Z,194.27
2017-09-28T22:51:53.834Z,236.93
2017-09-28T22:54:21.522Z,214.07
2017-09-28T22:56:49.271Z,211.37
2017-09-28T22:59:16.970Z,235.30
2017-09-28T23:01:44.748Z,226.83
2017-09-28T23:04:12.486Z,226.20
2017-09-28T23:06:40.282Z,200.80
2017-09-28T23:09:07.931Z,225.13
2017-09-28T23:11:35.695Z,233.80
2017-09-28T23:14:03.389Z,237.73
2017-09-28T23:16:31.132Z,253.67
2017-09-28T23:18:58.840Z,242.03
2017-09-28T23:21:26.577Z,246.17
2017-09-28T23:23:54.300Z,249.73
2017-09-28T23:26:22.061Z,263.50
2017-09-28T23:28:49.762Z,255.33
2017-09-28T23:31:17.508Z,242.63
2017-09-28T23:33:45.212Z,247.10
2017-09-28T23:36:12.980Z,225.17
2017-09-28T23:38:40.731Z,238.73
2017-09-28T23:41:08.482Z,248.77
2017-09-28T23:43:36.180Z,248.80
2017-09-28T23:46:03.935Z,265.50
2017-09-28T23:48:31.683Z,255.63
2017-09-28T23:50:59.371Z,265.73
2017-09-28T23:53:27.116Z,256.10
2017-09-28T23:55:54.775Z,263.73
2017-09-28T23:58:22.608Z,267.73
